Time;durP1;ratioP1;P1;durP2;ratioP2;P2;SDS_P1;SDS_P2;PMS_P1;PMS_P2;Temp;Humidity;BMP_temperature;BMP_pressure;BME280_temperature;BME280_humidity;BME280_pressure;Samples;Min_cycle;Max_cycle;Signal;HPM_P1;HPM_P2
2023/06/17 00:01:09;;;;;;;;;;;;;;;;;;4996770;28;8891;-87
2023/06/17 00:03:35;;;;;;;;;;;;;;;;;;4996500;28;8860;-88
2023/06/17 00:06:00;;;;;;;;;;;;;;;;;;4996647;28;8413;-88
2023/06/17 00:08:26;;;;;;;;;;;;;;;;;;4996526;28;7091;-89
2023/06/17 00:10:51;;;;;;;;;;;;;;;;;;4996635;28;7114;-88
2023/06/17 00:13:19;;;;;;;;;;;;;;;;;;4996349;28;8591;-88
2023/06/17 00:15:47;;;;;;;;;;;;;;;;;;4996383;28;8925;-88
2023/06/17 00:18:19;;;;;;;;;;;;;;;;;;4993593;28;7185;-89
2023/06/17 00:20:46;;;;;;;;;;;;;;;;;;4994063;28;8944;-88
2023/06/17 00:23:11;;;;;;;;;;;;;;;;;;4994036;28;8548;-88
2023/06/17 00:25:37;;;;;;;;;;;;;;;;;;4994062;28;7197;-90
2023/06/17 00:28:03;;;;;;;;;;;;;;;;;;4993752;28;9421;-89
2023/06/17 00:30:28;;;;;;;;;;;;;;;;;;4994252;28;8521;-88
2023/06/17 00:32:54;;;;;;;;;;;;;;;;;;4993760;28;8580;-86
2023/06/17 00:35:20;;;;;;;;;;;;;;;;;;4993823;28;7499;-88
2023/06/17 00:37:46;;;;;;;;;;;;;;;;;;4993555;28;9119;-87
2023/06/17 00:40:12;;;;;;;;;;;;;;;;;;4993745;28;8550;-89
2023/06/17 00:42:39;;;;;;;;;;;;;;;;;;4993632;28;8404;-90
2023/06/17 00:45:05;;;;;;;;;;;;;;;;;;4993339;28;8850;-89
2023/06/17 00:47:31;;;;;;;;;;;;;;;;;;4995738;28;8784;-83
2023/06/17 00:50:00;;;;;;;;;;;;;;;;;;5001108;28;6944;-85
2023/06/17 00:52:27;;;;;;;;;;;;;;;;;;4998233;28;7389;-89
2023/06/17 00:54:55;;;;;;;;;;;;;;;;;;4998485;28;7274;-83
2023/06/17 00:57:24;;;;;;;;;;;;;;;;;;5004914;28;8521;-83
2023/06/17 00:59:50;;;;;;;;;;;;;;;;;;5002006;28;7004;-88
2023/06/17 01:02:17;;;;;;;;;;;;;;;;;;5000074;28;7054;-86
2023/06/17 01:04:46;;;;;;;;;;;;;;;;;;4999578;28;7145;-90
2023/06/17 01:07:16;;;;;;;;;;;;;;;;;;4999928;28;7165;-86
2023/06/17 01:09:45;;;;;;;;;;;;;;;;;;4997580;28;6952;-88
2023/06/17 01:12:13;;;;;;;;;;;;;;;;;;4996380;28;7114;-88
2023/06/17 01:14:40;;;;;;;;;;;;;;;;;;4993187;28;8519;-86
2023/06/17 01:17:12;;;;;;;;;;;;;;;;;;4992802;28;8949;-87
2023/06/17 01:19:39;;;;;;;;;;;;;;;;;;4993271;28;8520;-87
2023/06/17 01:22:11;;;;;;;;;;;;;;;;;;4993011;28;7317;-89
2023/06/17 01:24:37;;;;;;;;;;;;;;;;;;4992978;28;8421;-88
2023/06/17 01:27:03;;;;;;;;;;;;;;;;;;4992968;28;7117;-92
2023/06/17 01:29:29;;;;;;;;;;;;;;;;;;4992897;28;8497;-88
2023/06/17 01:31:57;;;;;;;;;;;;;;;;;;4992663;28;8528;-89
2023/06/17 01:34:42;;;;;;;;;;;;;;;;;;4993195;28;7244;-87
2023/06/17 01:37:11;;;;;;;;;;;;;;;;;;4992695;28;8626;-88
2023/06/17 01:39:39;;;;;;;;;;;;;;;;;;4992644;28;7133;-89
2023/06/17 01:42:09;;;;;;;;;;;;;;;;;;4992754;28;8743;-88
2023/06/17 01:44:36;;;;;;;;;;;;;;;;;;4993136;28;9233;-87
2023/06/17 01:47:03;;;;;;;;;;;;;;;;;;4992596;28;8512;-88
2023/06/17 01:49:29;;;;;;;;;;;;;;;;;;4992816;28;8506;-91
2023/06/17 01:51:54;;;;;;;;;;;;;;;;;;4992760;28;8548;-87
2023/06/17 01:54:20;;;;;;;;;;;;;;;;;;4992776;28;7149;-89
2023/06/17 01:56:46;;;;;;;;;;;;;;;;;;4992815;28;8789;-88
2023/06/17 01:59:11;;;;;;;;;;;;;;;;;;4992573;28;6938;-89
2023/06/17 02:01:37;;;;;;;;;;;;;;;;;;4993718;28;8483;-88
2023/06/17 02:04:02;;;;;;;;;;;;;;;;;;4996606;28;8783;-89
2023/06/17 02:06:28;;;;;;;;;;;;;;;;;;4997094;28;8490;-89
2023/06/17 02:08:54;;;;;;;;;;;;;;;;;;4996653;28;7246;-88
2023/06/17 02:11:20;;;;;;;;;;;;;;;;;;4996242;28;8896;-91
2023/06/17 02:13:45;;;;;;;;;;;;;;;;;;4996502;28;8371;-89
2023/06/17 02:16:11;;;;;;;;;;;;;;;;;;4996287;28;8451;-90
2023/06/17 02:18:37;;;;;;;;;;;;;;;;;;4996273;28;8756;-89
2023/06/17 02:21:03;;;;;;;;;;;;;;;;;;4996182;28;8895;-89
2023/06/17 02:23:29;;;;;;;;;;;;;;;;;;4996274;28;8475;-90
2023/06/17 02:25:56;;;;;;;;;;;;;;;;;;4996166;28;8517;-88
2023/06/17 02:28:22;;;;;;;;;;;;;;;;;;4995999;28;8466;-88
2023/06/17 02:30:47;;;;;;;;;;;;;;;;;;4996563;28;8394;-88
2023/06/17 02:33:17;;;;;;;;;;;;;;;;;;4995945;28;8350;-87
2023/06/17 02:35:44;;;;;;;;;;;;;;;;;;4996006;28;8536;-88
2023/06/17 02:38:13;;;;;;;;;;;;;;;;;;4995693;28;8558;-87
2023/06/17 02:40:39;;;;;;;;;;;;;;;;;;4996034;28;9073;-87
2023/06/17 02:43:05;;;;;;;;;;;;;;;;;;4995893;28;8933;-87
2023/06/17 02:45:30;;;;;;;;;;;;;;;;;;4995392;28;7250;-88
2023/06/17 02:47:56;;;;;;;;;;;;;;;;;;4995965;28;8467;-87
2023/06/17 02:50:23;;;;;;;;;;;;;;;;;;4995972;28;9233;-89
2023/06/17 02:52:55;;;;;;;;;;;;;;;;;;4995618;28;7264;-87
2023/06/17 02:55:21;;;;;;;;;;;;;;;;;;4995526;28;8707;-87
2023/06/17 02:57:47;;;;;;;;;;;;;;;;;;4996105;28;9089;-90
2023/06/17 03:00:13;;;;;;;;;;;;;;;;;;4995824;28;8467;-88
2023/06/17 03:02:39;;;;;;;;;;;;;;;;;;4995161;28;8979;-88
2023/06/17 03:05:06;;;;;;;;;;;;;;;;;;4995547;28;7126;-88
2023/06/17 03:07:35;;;;;;;;;;;;;;;;;;4995501;28;7268;-88
2023/06/17 03:10:02;;;;;;;;;;;;;;;;;;4995371;28;9000;-84
2023/06/17 03:12:28;;;;;;;;;;;;;;;;;;4994988;28;7134;-87
2023/06/17 03:14:53;;;;;;;;;;;;;;;;;;4994416;28;8737;-86
2023/06/17 03:17:19;;;;;;;;;;;;;;;;;;4995722;28;8590;-89
2023/06/17 03:19:46;;;;;;;;;;;;;;;;;;5004948;28;8555;-88
2023/06/17 03:22:11;;;;;;;;;;;;;;;;;;5000890;28;6946;-88
2023/06/17 03:24:37;;;;;;;;;;;;;;;;;;4997822;28;8391;-88
2023/06/17 03:27:03;;;;;;;;;;;;;;;;;;4995036;28;8808;-90
2023/06/17 03:29:29;;;;;;;;;;;;;;;;;;4996370;28;6901;-88
2023/06/17 03:31:56;;;;;;;;;;;;;;;;;;4999139;28;7177;-89
2023/06/17 03:34:24;;;;;;;;;;;;;;;;;;4998178;28;7087;-86
2023/06/17 03:36:52;;;;;;;;;;;;;;;;;;5000436;28;6956;-84
2023/06/17 03:39:18;;;;;;;;;;;;;;;;;;4998991;28;6949;-88
2023/06/17 03:41:44;;;;;;;;;;;;;;;;;;5000815;28;6929;-85
2023/06/17 03:44:10;;;;;;;;;;;;;;;;;;5006557;28;6925;-85
2023/06/17 03:46:36;;;;;;;;;;;;;;;;;;4987946;28;7060;-83
2023/06/17 03:49:02;;;;;;;;;;;;;;;;;;5002933;28;6984;-88
2023/06/17 03:51:27;;;;;;;;;;;;;;;;;;5002163;28;7139;-86
2023/06/17 03:53:53;;;;;;;;;;;;;;;;;;5002091;28;6935;-88
2023/06/17 03:56:19;;;;;;;;;;;;;;;;;;5003437;28;6961;-84
2023/06/17 03:58:44;;;;;;;;;;;;;;;;;;5005107;28;6969;-86
2023/06/17 04:01:12;;;;;;;;;;;;;;;;;;4999831;28;7233;-90
2023/06/17 04:03:42;;;;;;;;;;;;;;;;;;4998114;28;6945;-88
2023/06/17 04:06:08;;;;;;;;;;;;;;;;;;5000470;28;7112;-87
2023/06/17 04:08:35;;;;;;;;;;;;;;;;;;4997589;28;6950;-88
2023/06/17 04:11:02;;;;;;;;;;;;;;;;;;4993988;28;7196;-90
2023/06/17 04:13:27;;;;;;;;;;;;;;;;;;4994256;28;8410;-89
2023/06/17 04:15:53;;;;;;;;;;;;;;;;;;4994380;28;8822;-88
2023/06/17 04:18:18;;;;;;;;;;;;;;;;;;4994035;28;8429;-90
2023/06/17 04:20:44;;;;;;;;;;;;;;;;;;4994311;28;8501;-89
2023/06/17 04:23:10;;;;;;;;;;;;;;;;;;4993757;28;8390;-87
2023/06/17 04:25:36;;;;;;;;;;;;;;;;;;4993358;28;8354;-88
2023/06/17 04:28:03;;;;;;;;;;;;;;;;;;4993771;28;8911;-89
2023/06/17 04:30:30;;;;;;;;;;;;;;;;;;4993933;28;8853;-90
2023/06/17 04:33:00;;;;;;;;;;;;;;;;;;4994127;28;9244;-88
2023/06/17 04:35:29;;;;;;;;;;;;;;;;;;4993521;28;8823;-88
2023/06/17 04:37:55;;;;;;;;;;;;;;;;;;4994022;28;9230;-89
2023/06/17 04:40:21;;;;;;;;;;;;;;;;;;4993930;28;8436;-88
2023/06/17 04:42:48;;;;;;;;;;;;;;;;;;4993448;28;7221;-89
2023/06/17 04:45:14;;;;;;;;;;;;;;;;;;4993312;28;8583;-88
2023/06/17 04:47:40;;;;;;;;;;;;;;;;;;4993310;28;8670;-88
2023/06/17 04:50:05;;;;;;;;;;;;;;;;;;4993471;28;9064;-88
2023/06/17 04:52:32;;;;;;;;;;;;;;;;;;4993351;28;8700;-88
2023/06/17 04:54:57;;;;;;;;;;;;;;;;;;5009717;28;8501;-89
2023/06/17 04:57:23;;;;;;;;;;;;;;;;;;4993413;28;7116;-88
2023/06/17 04:59:49;;;;;;;;;;;;;;;;;;4994180;28;8416;-89
2023/06/17 05:02:16;;;;;;;;;;;;;;;;;;4993917;28;6890;-88
2023/06/17 05:04:41;;;;;;;;;;;;;;;;;;4993267;28;8489;-90
2023/06/17 05:07:07;;;;;;;;;;;;;;;;;;4994909;28;8529;-87
2023/06/17 05:09:32;;;;;;;;;;;;;;;;;;4992954;28;8531;-88
2023/06/17 05:11:58;;;;;;;;;;;;;;;;;;4992823;28;8594;-84
2023/06/17 05:14:23;;;;;;;;;;;;;;;;;;4992830;28;8764;-85
2023/06/17 05:16:49;;;;;;;;;;;;;;;;;;4992943;28;9386;-85
2023/06/17 05:19:14;;;;;;;;;;;;;;;;;;4992838;28;7233;-85
2023/06/17 05:21:40;;;;;;;;;;;;;;;;;;4993340;28;8665;-85
2023/06/17 05:24:05;;;;;;;;;;;;;;;;;;4992717;28;8492;-85
2023/06/17 05:26:31;;;;;;;;;;;;;;;;;;4992819;28;8492;-86
2023/06/17 05:28:57;;;;;;;;;;;;;;;;;;4992857;28;8513;-83
2023/06/17 05:31:22;;;;;;;;;;;;;;;;;;4992659;28;8652;-85
2023/06/17 05:33:48;;;;;;;;;;;;;;;;;;4992743;28;8567;-84
2023/06/17 05:36:14;;;;;;;;;;;;;;;;;;4992382;28;7152;-85
2023/06/17 05:38:40;;;;;;;;;;;;;;;;;;4992717;28;8691;-84
2023/06/17 05:41:06;;;;;;;;;;;;;;;;;;4992584;28;8590;-84
2023/06/17 05:43:31;;;;;;;;;;;;;;;;;;5009049;28;8479;-86
2023/06/17 05:45:57;;;;;;;;;;;;;;;;;;5008809;28;8506;-87
2023/06/17 05:48:22;;;;;;;;;;;;;;;;;;5009040;28;8496;-87
2023/06/17 05:50:48;;;;;;;;;;;;;;;;;;5008879;28;8406;-86
2023/06/17 05:53:13;;;;;;;;;;;;;;;;;;5009140;28;8759;-87
2023/06/17 05:55:39;;;;;;;;;;;;;;;;;;5008842;28;8848;-85
2023/06/17 05:58:04;;;;;;;;;;;;;;;;;;5008630;28;7111;-86
2023/06/17 06:00:30;;;;;;;;;;;;;;;;;;5009062;28;8475;-85
2023/06/17 06:02:56;;;;;;;;;;;;;;;;;;5008751;28;8497;-86
2023/06/17 06:05:21;;;;;;;;;;;;;;;;;;5008765;28;8588;-86
2023/06/17 06:07:47;;;;;;;;;;;;;;;;;;5008600;28;8505;-85
2023/06/17 06:10:13;;;;;;;;;;;;;;;;;;5008639;28;8476;-87
2023/06/17 06:12:39;;;;;;;;;;;;;;;;;;5000821;28;8467;-87
2023/06/17 06:15:06;;;;;;;;;;;;;;;;;;4989625;28;8858;-82
2023/06/17 06:17:33;;;;;;;;;;;;;;;;;;4988438;28;8798;-82
2023/06/17 06:19:58;;;;;;;;;;;;;;;;;;4991688;28;9128;-82
2023/06/17 06:22:24;;;;;;;;;;;;;;;;;;4989251;28;8550;-83
2023/06/17 06:24:50;;;;;;;;;;;;;;;;;;4988718;28;8602;-82
2023/06/17 06:27:15;;;;;;;;;;;;;;;;;;4989112;28;8548;-82
2023/06/17 06:29:41;;;;;;;;;;;;;;;;;;4988660;28;8815;-82
2023/06/17 06:32:06;;;;;;;;;;;;;;;;;;4989519;28;8457;-82
2023/06/17 06:34:32;;;;;;;;;;;;;;;;;;4989403;28;8521;-82
2023/06/17 06:36:59;;;;;;;;;;;;;;;;;;4989478;28;7275;-82
2023/06/17 06:39:25;;;;;;;;;;;;;;;;;;4989663;28;7355;-82
2023/06/17 06:41:51;;;;;;;;;;;;;;;;;;4989552;28;8753;-82
2023/06/17 06:44:18;;;;;;;;;;;;;;;;;;4989492;28;9080;-82
2023/06/17 06:46:43;;;;;;;;;;;;;;;;;;4989375;28;8763;-81
2023/06/17 06:49:09;;;;;;;;;;;;;;;;;;4994722;28;8453;-81
2023/06/17 06:51:36;;;;;;;;;;;;;;;;;;4992631;28;7173;-81
2023/06/17 06:54:02;;;;;;;;;;;;;;;;;;4992349;28;9398;-80
2023/06/17 06:56:28;;;;;;;;;;;;;;;;;;5010947;28;8544;-82
2023/06/17 06:58:56;;;;;;;;;;;;;;;;;;4995653;28;8843;-82
2023/06/17 07:01:22;;;;;;;;;;;;;;;;;;4995911;28;7146;-83
2023/06/17 07:03:48;;;;;;;;;;;;;;;;;;4995392;28;8525;-82
2023/06/17 07:06:14;;;;;;;;;;;;;;;;;;4995842;28;7288;-88
2023/06/17 07:08:39;;;;;;;;;;;;;;;;;;4995832;28;8546;-87
2023/06/17 07:11:05;;;;;;;;;;;;;;;;;;4996039;28;8484;-88
2023/06/17 07:13:31;;;;;;;;;;;;;;;;;;4995791;28;7232;-87
2023/06/17 07:15:56;;;;;;;;;;;;;;;;;;4995918;28;8496;-87
2023/06/17 07:18:22;;;;;;;;;;;;;;;;;;4995830;28;8517;-87
2023/06/17 07:20:47;;;;;;;;;;;;;;;;;;4995681;28;8472;-87
2023/06/17 07:23:13;;;;;;;;;;;;;;;;;;4996071;28;8509;-87
2023/06/17 07:25:38;;;;;;;;;;;;;;;;;;4995598;28;8905;-86
2023/06/17 07:28:05;;;;;;;;;;;;;;;;;;4995500;28;7325;-86
2023/06/17 07:30:30;;;;;;;;;;;;;;;;;;4995203;28;7150;-88
2023/06/17 07:32:56;;;;;;;;;;;;;;;;;;4995254;28;8490;-89
2023/06/17 07:35:21;;;;;;;;;;;;;;;;;;4994570;28;8483;-89
2023/06/17 07:37:50;;;;;;;;;;;;;;;;;;4994538;28;8581;-89
2023/06/17 07:40:16;;;;;;;;;;;;;;;;;;4995359;28;8528;-85
2023/06/17 07:42:42;;;;;;;;;;;;;;;;;;4994527;28;8479;-86
2023/06/17 07:45:09;;;;;;;;;;;;;;;;;;4994327;28;8503;-86
2023/06/17 07:47:34;;;;;;;;;;;;;;;;;;4994518;28;7141;-86
2023/06/17 07:50:00;;;;;;;;;;;;;;;;;;4994146;28;7335;-88
2023/06/17 07:52:25;;;;;;;;;;;;;;;;;;4994198;28;8589;-88
2023/06/17 07:54:52;;;;;;;;;;;;;;;;;;4994180;28;9073;-88
2023/06/17 07:57:18;;;;;;;;;;;;;;;;;;4994517;28;8749;-87
2023/06/17 07:59:43;;;;;;;;;;;;;;;;;;4993095;28;8558;-87
2023/06/17 08:02:09;;;;;;;;;;;;;;;;;;4994363;28;8682;-87
2023/06/17 08:04:35;;;;;;;;;;;;;;;;;;4994276;28;8903;-87
2023/06/17 08:07:01;;;;;;;;;;;;;;;;;;4994258;28;9282;-85
2023/06/17 08:09:27;;;;;;;;;;;;;;;;;;4993651;28;8540;-85
2023/06/17 08:11:52;;;;;;;;;;;;;;;;;;4993938;28;8902;-86
2023/06/17 08:14:23;;;;;;;;;;;;;;;;;;4993856;28;8687;-87
2023/06/17 08:16:51;;;;;;;;;;;;;;;;;;4993861;28;8468;-87
2023/06/17 08:19:16;;;;;;;;;;;;;;;;;;4993860;28;8562;-87
2023/06/17 08:21:44;;;;;;;;;;;;;;;;;;4994095;28;9639;-87
2023/06/17 08:24:20;;;;;;;;;;;;;;;;;;4994244;28;7207;-87
2023/06/17 08:26:46;;;;;;;;;;;;;;;;;;4993891;28;8756;-88
2023/06/17 08:29:13;;;;;;;;;;;;;;;;;;4993628;28;8861;-88
2023/06/17 08:31:41;;;;;;;;;;;;;;;;;;4993616;28;7234;-88
2023/06/17 08:34:07;;;;;;;;;;;;;;;;;;4993158;28;7187;-87
2023/06/17 08:36:33;;;;;;;;;;;;;;;;;;4993617;28;8426;-87
2023/06/17 08:39:00;;;;;;;;;;;;;;;;;;4993651;28;8426;-88
2023/06/17 08:41:26;;;;;;;;;;;;;;;;;;4993599;28;8544;-88
2023/06/17 08:43:55;;;;;;;;;;;;;;;;;;4993480;28;7156;-87
2023/06/17 08:46:21;;;;;;;;;;;;;;;;;;4993026;28;7182;-88
2023/06/17 08:48:49;;;;;;;;;;;;;;;;;;4993130;28;7357;-87
2023/06/17 08:51:15;;;;;;;;;;;;;;;;;;4993379;28;8493;-89
2023/06/17 08:53:44;;;;;;;;;;;;;;;;;;4993048;28;8523;-86
2023/06/17 08:56:11;;;;;;;;;;;;;;;;;;4993040;28;7247;-87
2023/06/17 08:58:37;;;;;;;;;;;;;;;;;;4993098;28;7164;-87
2023/06/17 09:01:04;;;;;;;;;;;;;;;;;;4993045;28;8489;-88
2023/06/17 09:03:32;;;;;;;;;;;;;;;;;;4993179;28;7199;-88
2023/06/17 09:05:57;;;;;;;;;;;;;;;;;;4992932;28;8599;-88
2023/06/17 09:08:24;;;;;;;;;;;;;;;;;;4993228;28;8496;-88
2023/06/17 09:10:50;;;;;;;;;;;;;;;;;;4992725;28;9800;-86
2023/06/17 09:13:15;;;;;;;;;;;;;;;;;;4992873;28;8500;-87
2023/06/17 09:15:43;;;;;;;;;;;;;;;;;;4992733;28;8525;-88
2023/06/17 09:18:09;;;;;;;;;;;;;;;;;;4992604;28;7251;-87
2023/06/17 09:20:34;;;;;;;;;;;;;;;;;;4993493;28;9182;-88
2023/06/17 09:23:00;;;;;;;;;;;;;;;;;;4992608;28;8525;-88
2023/06/17 09:25:26;;;;;;;;;;;;;;;;;;4993387;28;8521;-88
2023/06/17 09:27:53;;;;;;;;;;;;;;;;;;4992663;28;8590;-89
2023/06/17 09:30:20;;;;;;;;;;;;;;;;;;4992944;28;8760;-89
2023/06/17 09:32:49;;;;;;;;;;;;;;;;;;4992765;28;8699;-90
2023/06/17 09:35:15;;;;;;;;;;;;;;;;;;4992536;28;8497;-90
2023/06/17 09:37:52;;;;;;;;;;;;;;;;;;4992813;28;8543;-90
2023/06/17 09:40:19;;;;;;;;;;;;;;;;;;4992645;28;8924;-89
2023/06/17 09:42:47;;;;;;;;;;;;;;;;;;4992554;28;9008;-88
2023/06/17 09:45:19;;;;;;;;;;;;;;;;;;4992492;28;9552;-90
2023/06/17 09:47:53;;;;;;;;;;;;;;;;;;4992828;28;9214;-89
2023/06/17 09:50:20;;;;;;;;;;;;;;;;;;4992785;28;8917;-90
2023/06/17 09:52:52;;;;;;;;;;;;;;;;;;4992527;28;9178;-89
2023/06/17 09:55:18;;;;;;;;;;;;;;;;;;4992623;28;9047;-89
2023/06/17 09:57:44;;;;;;;;;;;;;;;;;;5001465;28;7234;-90
2023/06/17 10:00:10;;;;;;;;;;;;;;;;;;5008810;28;8613;-89
2023/06/17 10:02:39;;;;;;;;;;;;;;;;;;5008994;28;8038;-90
2023/06/17 10:05:06;;;;;;;;;;;;;;;;;;5008787;28;8862;-89
2023/06/17 10:07:32;;;;;;;;;;;;;;;;;;5008922;28;7173;-89
2023/06/17 10:10:00;;;;;;;;;;;;;;;;;;5008549;28;8525;-89
2023/06/17 10:12:27;;;;;;;;;;;;;;;;;;5008719;28;7288;-90
2023/06/17 10:14:53;;;;;;;;;;;;;;;;;;5008746;28;7247;-90
2023/06/17 10:17:22;;;;;;;;;;;;;;;;;;5008682;28;8478;-88
2023/06/17 10:19:49;;;;;;;;;;;;;;;;;;5008806;28;8748;-87
2023/06/17 10:22:19;;;;;;;;;;;;;;;;;;5008833;28;8700;-89
2023/06/17 10:24:46;;;;;;;;;;;;;;;;;;5012606;28;8998;-88
2023/06/17 10:27:12;;;;;;;;;;;;;;;;;;5012505;28;8547;-88
2023/06/17 10:29:44;;;;;;;;;;;;;;;;;;5012533;28;8532;-88
2023/06/17 10:32:22;;;;;;;;;;;;;;;;;;5012309;28;8552;-91
2023/06/17 10:35:09;;;;;;;;;;;;;;;;;;5012332;28;8567;-91
2023/06/17 10:37:39;;;;;;;;;;;;;;;;;;5011937;28;8017;-86
2023/06/17 10:40:22;;;;;;;;;;;;;;;;;;5012565;28;8942;-86
2023/06/17 10:43:03;;;;;;;;;;;;;;;;;;5012916;28;7151;-91
2023/06/17 10:45:29;;;;;;;;;;;;;;;;;;4995882;28;7287;-86
2023/06/17 10:48:14;;;;;;;;;;;;;;;;;;5011936;28;8532;-89
2023/06/17 10:50:41;;;;;;;;;;;;;;;;;;4996321;28;8537;-89
2023/06/17 10:53:07;;;;;;;;;;;;;;;;;;5012066;28;8891;-88
2023/06/17 10:55:33;;;;;;;;;;;;;;;;;;5011772;28;8557;-89
2023/06/17 10:57:58;;;;;;;;;;;;;;;;;;5012075;28;8535;-89
2023/06/17 11:00:24;;;;;;;;;;;;;;;;;;5011739;28;8459;-91
2023/06/17 11:02:49;;;;;;;;;;;;;;;;;;5011635;28;8647;-89
2023/06/17 11:05:16;;;;;;;;;;;;;;;;;;5012328;28;8662;-91
2023/06/17 11:07:42;;;;;;;;;;;;;;;;;;5012091;28;8936;-90
2023/06/17 11:10:10;;;;;;;;;;;;;;;;;;5012356;28;8701;-90
2023/06/17 11:12:39;;;;;;;;;;;;;;;;;;5012034;28;8762;-88
2023/06/17 11:15:07;;;;;;;;;;;;;;;;;;5011422;28;8533;-85
2023/06/17 11:17:33;;;;;;;;;;;;;;;;;;5011442;28;8839;-90
2023/06/17 11:20:05;;;;;;;;;;;;;;;;;;5011081;28;7119;-88
2023/06/17 11:22:35;;;;;;;;;;;;;;;;;;5009798;28;8522;-86
2023/06/17 11:25:01;;;;;;;;;;;;;;;;;;5011903;28;8724;-87
2023/06/17 11:27:28;;;;;;;;;;;;;;;;;;5011512;28;7192;-89
2023/06/17 11:29:54;;;;;;;;;;;;;;;;;;5011160;28;8575;-86
2023/06/17 11:32:20;;;;;;;;;;;;;;;;;;5011845;28;8429;-86
2023/06/17 11:34:46;;;;;;;;;;;;;;;;;;5011550;28;8791;-84
2023/06/17 11:37:12;;;;;;;;;;;;;;;;;;5011976;28;8487;-91
2023/06/17 11:39:38;;;;;;;;;;;;;;;;;;5011766;28;8570;-91
2023/06/17 11:42:04;;;;;;;;;;;;;;;;;;4995762;28;8501;-91
2023/06/17 11:44:32;;;;;;;;;;;;;;;;;;5011812;28;7235;-91
2023/06/17 11:47:12;;;;;;;;;;;;;;;;;;5011277;28;8513;-85
2023/06/17 11:49:41;;;;;;;;;;;;;;;;;;5010264;28;7325;-88
2023/06/17 11:52:08;;;;;;;;;;;;;;;;;;5010967;28;7270;-86
2023/06/17 11:54:35;;;;;;;;;;;;;;;;;;5010750;28;8519;-92
2023/06/17 11:57:02;;;;;;;;;;;;;;;;;;5010596;28;7198;-87
2023/06/17 11:59:31;;;;;;;;;;;;;;;;;;5010817;28;7158;-88
2023/06/17 12:01:56;;;;;;;;;;;;;;;;;;5011200;28;7876;-87
2023/06/17 12:04:24;;;;;;;;;;;;;;;;;;5010045;28;8546;-90
2023/06/17 12:06:50;;;;;;;;;;;;;;;;;;5009351;28;8659;-87
2023/06/17 12:09:15;;;;;;;;;;;;;;;;;;5009691;28;8553;-89
2023/06/17 12:11:43;;;;;;;;;;;;;;;;;;5010071;28;8524;-89
2023/06/17 12:14:12;;;;;;;;;;;;;;;;;;5009466;28;8434;-85
2023/06/17 12:16:39;;;;;;;;;;;;;;;;;;5009312;28;8878;-90
2023/06/17 12:19:13;;;;;;;;;;;;;;;;;;5009893;28;8908;-86
2023/06/17 12:21:39;;;;;;;;;;;;;;;;;;5009685;28;8544;-85
2023/06/17 12:24:04;;;;;;;;;;;;;;;;;;5010742;28;8891;-84
2023/06/17 12:26:31;;;;;;;;;;;;;;;;;;5010186;28;8822;-86
2023/06/17 12:29:01;;;;;;;;;;;;;;;;;;5010257;28;8546;-87
2023/06/17 12:31:26;;;;;;;;;;;;;;;;;;5010185;28;9044;-86
2023/06/17 12:33:52;;;;;;;;;;;;;;;;;;5009698;28;8568;-86
2023/06/17 12:36:18;;;;;;;;;;;;;;;;;;5009725;28;8470;-86
2023/06/17 12:38:45;;;;;;;;;;;;;;;;;;5009931;28;8729;-85
2023/06/17 12:41:12;;;;;;;;;;;;;;;;;;5010133;28;8934;-88
2023/06/17 12:43:38;;;;;;;;;;;;;;;;;;5009827;28;8543;-88
2023/06/17 12:46:05;;;;;;;;;;;;;;;;;;5008984;28;8535;-90
2023/06/17 12:48:34;;;;;;;;;;;;;;;;;;5009866;28;8865;-84
2023/06/17 12:51:00;;;;;;;;;;;;;;;;;;5009492;28;8554;-86
2023/06/17 12:53:26;;;;;;;;;;;;;;;;;;5009726;28;8867;-83
2023/06/17 12:55:55;;;;;;;;;;;;;;;;;;4994536;28;8567;-86
2023/06/17 12:58:21;;;;;;;;;;;;;;;;;;5009556;28;9164;-83
2023/06/17 13:00:47;;;;;;;;;;;;;;;;;;5009406;28;8840;-83
2023/06/17 13:03:12;;;;;;;;;;;;;;;;;;5008958;28;8610;-82
2023/06/17 13:05:38;;;;;;;;;;;;;;;;;;5009445;28;8586;-83
2023/06/17 13:08:03;;;;;;;;;;;;;;;;;;5009544;28;8821;-85
2023/06/17 13:10:29;;;;;;;;;;;;;;;;;;5010361;28;8839;-85
2023/06/17 13:12:56;;;;;;;;;;;;;;;;;;5009609;28;8608;-84
2023/06/17 13:15:23;;;;;;;;;;;;;;;;;;5009472;28;8927;-84
2023/06/17 13:17:49;;;;;;;;;;;;;;;;;;5008886;28;9238;-84
2023/06/17 13:20:15;;;;;;;;;;;;;;;;;;5009247;28;8522;-85
2023/06/17 13:22:42;;;;;;;;;;;;;;;;;;5009022;28;8926;-84
2023/06/17 13:25:08;;;;;;;;;;;;;;;;;;5009119;28;9257;-84
2023/06/17 13:27:34;;;;;;;;;;;;;;;;;;5009308;28;7271;-85
2023/06/17 13:29:59;;;;;;;;;;;;;;;;;;5008778;28;8518;-84
2023/06/17 13:32:26;;;;;;;;;;;;;;;;;;5009052;28;8873;-85
2023/06/17 13:34:53;;;;;;;;;;;;;;;;;;5008869;28;8604;-85
2023/06/17 13:37:18;;;;;;;;;;;;;;;;;;5009503;28;8851;-85
2023/06/17 13:39:44;;;;;;;;;;;;;;;;;;5009832;28;7231;-85
2023/06/17 13:42:11;;;;;;;;;;;;;;;;;;5009657;28;8608;-85
2023/06/17 13:44:37;;;;;;;;;;;;;;;;;;5009396;28;7185;-85
2023/06/17 13:47:06;;;;;;;;;;;;;;;;;;5009886;28;8813;-85
2023/06/17 13:49:33;;;;;;;;;;;;;;;;;;5009896;28;9131;-85
2023/06/17 13:52:00;;;;;;;;;;;;;;;;;;5009557;28;7371;-84
2023/06/17 13:54:26;;;;;;;;;;;;;;;;;;5008250;28;8636;-85
2023/06/17 13:56:54;;;;;;;;;;;;;;;;;;5008787;28;8948;-85
2023/06/17 13:59:20;;;;;;;;;;;;;;;;;;5012326;28;8994;-86
2023/06/17 14:01:46;;;;;;;;;;;;;;;;;;5012786;28;8644;-84
2023/06/17 14:04:12;;;;;;;;;;;;;;;;;;5012709;28;8586;-84
2023/06/17 14:06:38;;;;;;;;;;;;;;;;;;5012535;28;7176;-84
2023/06/17 14:09:05;;;;;;;;;;;;;;;;;;5012678;28;8529;-85
2023/06/17 14:11:31;;;;;;;;;;;;;;;;;;5012490;28;9433;-84
2023/06/17 14:13:57;;;;;;;;;;;;;;;;;;5012074;28;8881;-83
2023/06/17 14:16:22;;;;;;;;;;;;;;;;;;5012471;28;8732;-90
2023/06/17 14:18:48;;;;;;;;;;;;;;;;;;5012804;28;7257;-86
2023/06/17 14:21:26;;;;;;;;;;;;;;;;;;5013033;28;8783;-89
2023/06/17 14:23:52;;;;;;;;;;;;;;;;;;5013331;28;9357;-87
2023/06/17 14:26:19;;;;;;;;;;;;;;;;;;5012370;28;8850;-85
2023/06/17 14:28:45;;;;;;;;;;;;;;;;;;5012363;28;7303;-85
2023/06/17 14:31:10;;;;;;;;;;;;;;;;;;5014820;28;8598;-84
2023/06/17 14:33:36;;;;;;;;;;;;;;;;;;5012515;28;8700;-86
2023/06/17 14:36:02;;;;;;;;;;;;;;;;;;5012601;28;8924;-86
2023/06/17 14:38:27;;;;;;;;;;;;;;;;;;5012138;28;8581;-86
2023/06/17 14:40:53;;;;;;;;;;;;;;;;;;5012150;28;8528;-83
2023/06/17 14:43:18;;;;;;;;;;;;;;;;;;5012024;28;8610;-83
2023/06/17 14:45:44;;;;;;;;;;;;;;;;;;5011793;28;8798;-83
2023/06/17 14:48:09;;;;;;;;;;;;;;;;;;5011359;28;8617;-83
2023/06/17 14:50:35;;;;;;;;;;;;;;;;;;5009532;28;8896;-83
2023/06/17 14:53:00;;;;;;;;;;;;;;;;;;5010901;28;7031;-85
2023/06/17 14:55:26;;;;;;;;;;;;;;;;;;5011383;28;8444;-85
2023/06/17 14:57:51;;;;;;;;;;;;;;;;;;5010950;28;8677;-82
2023/06/17 15:00:17;;;;;;;;;;;;;;;;;;5011456;28;8557;-83
2023/06/17 15:02:43;;;;;;;;;;;;;;;;;;5011340;28;8913;-83
2023/06/17 15:05:09;;;;;;;;;;;;;;;;;;5010574;28;8714;-82
2023/06/17 15:07:34;;;;;;;;;;;;;;;;;;5011305;28;7292;-83
2023/06/17 15:10:00;;;;;;;;;;;;;;;;;;5010399;28;7154;-83
2023/06/17 15:12:25;;;;;;;;;;;;;;;;;;5011462;28;8540;-82
2023/06/17 15:14:53;;;;;;;;;;;;;;;;;;5011146;28;8935;-82
2023/06/17 15:17:20;;;;;;;;;;;;;;;;;;5010570;28;7590;-83
2023/06/17 15:19:46;;;;;;;;;;;;;;;;;;5010614;28;8204;-83
2023/06/17 15:22:12;;;;;;;;;;;;;;;;;;5011133;28;8917;-81
2023/06/17 15:24:37;;;;;;;;;;;;;;;;;;5010979;28;8773;-82
2023/06/17 15:27:05;;;;;;;;;;;;;;;;;;5010218;28;7171;-83
2023/06/17 15:29:30;;;;;;;;;;;;;;;;;;5010123;28;8852;-83
2023/06/17 15:31:56;;;;;;;;;;;;;;;;;;5010762;28;8592;-82
2023/06/17 15:34:21;;;;;;;;;;;;;;;;;;4991106;28;8756;-82
2023/06/17 15:36:47;;;;;;;;;;;;;;;;;;4991174;28;8563;-83
2023/06/17 15:39:20;;;;;;;;;;;;;;;;;;4991615;28;8656;-84
2023/06/17 15:41:46;;;;;;;;;;;;;;;;;;5010648;28;8460;-83
2023/06/17 15:44:14;;;;;;;;;;;;;;;;;;5010696;28;8737;-82
2023/06/17 15:46:39;;;;;;;;;;;;;;;;;;5009983;28;8656;-85
2023/06/17 15:49:06;;;;;;;;;;;;;;;;;;5009778;28;8841;-82
2023/06/17 15:51:31;;;;;;;;;;;;;;;;;;5009291;28;8960;-84
2023/06/17 15:53:58;;;;;;;;;;;;;;;;;;5009866;28;8558;-82
2023/06/17 15:56:25;;;;;;;;;;;;;;;;;;5010493;28;8852;-83
2023/06/17 15:58:51;;;;;;;;;;;;;;;;;;5009874;28;8981;-82
2023/06/17 16:01:16;;;;;;;;;;;;;;;;;;5009926;28;8630;-81
2023/06/17 16:03:43;;;;;;;;;;;;;;;;;;5009507;28;8732;-83
2023/06/17 16:06:08;;;;;;;;;;;;;;;;;;5009801;28;7250;-81
2023/06/17 16:08:35;;;;;;;;;;;;;;;;;;5010228;28;8927;-82
2023/06/17 16:11:02;;;;;;;;;;;;;;;;;;5009676;28;9239;-83
2023/06/17 16:13:27;;;;;;;;;;;;;;;;;;5010019;28;8775;-83
2023/06/17 16:15:54;;;;;;;;;;;;;;;;;;5009133;28;8522;-83
2023/06/17 16:18:19;;;;;;;;;;;;;;;;;;5010116;28;8899;-83
2023/06/17 16:20:46;;;;;;;;;;;;;;;;;;5007948;28;9131;-83
2023/06/17 16:23:12;;;;;;;;;;;;;;;;;;5010090;28;9264;-82
2023/06/17 16:25:38;;;;;;;;;;;;;;;;;;5009875;28;8837;-83
2023/06/17 16:28:04;;;;;;;;;;;;;;;;;;5009302;28;8761;-85
2023/06/17 16:30:29;;;;;;;;;;;;;;;;;;5009392;28;8926;-83
2023/06/17 16:32:55;;;;;;;;;;;;;;;;;;5009287;28;9454;-82
2023/06/17 16:35:21;;;;;;;;;;;;;;;;;;5009680;28;8710;-81
2023/06/17 16:37:46;;;;;;;;;;;;;;;;;;5009353;28;8532;-82
2023/06/17 16:40:12;;;;;;;;;;;;;;;;;;5008856;28;8488;-82
2023/06/17 16:42:37;;;;;;;;;;;;;;;;;;5009476;28;8552;-82
2023/06/17 16:45:03;;;;;;;;;;;;;;;;;;5008825;28;8888;-82
2023/06/17 16:47:30;;;;;;;;;;;;;;;;;;5010096;28;7739;-83
2023/06/17 16:49:55;;;;;;;;;;;;;;;;;;5008818;28;8901;-83
2023/06/17 16:52:23;;;;;;;;;;;;;;;;;;5009610;28;8607;-83
2023/06/17 16:54:49;;;;;;;;;;;;;;;;;;5009543;28;8585;-84
2023/06/17 16:57:16;;;;;;;;;;;;;;;;;;5009380;28;8925;-81
2023/06/17 16:59:42;;;;;;;;;;;;;;;;;;5009415;28;8857;-83